sensor_id;sensor_type;location;lat;lon;timestamp;pressure;altitude;pressure_sealevel;temperature;humidity
23172;BME280;11754;42.664;23.594;2022-11-15T00:00:24;96037.50;;;3.86;75.21
23172;BME280;11754;42.664;23.594;2022-11-15T00:02:52;96032.50;;;3.83;74.84
23172;BME280;11754;42.664;23.594;2022-11-15T00:05:18;96030.59;;;3.85;74.90
23172;BME280;11754;42.664;23.594;2022-11-15T00:07:43;96013.50;;;3.81;75.52
23172;BME280;11754;42.664;23.594;2022-11-15T00:10:09;96028.50;;;3.90;75.45
23172;BME280;11754;42.664;23.594;2022-11-15T00:12:34;96026.81;;;3.89;75.46
23172;BME280;11754;42.664;23.594;2022-11-15T00:15:00;96026.22;;;3.85;75.88
23172;BME280;11754;42.664;23.594;2022-11-15T00:17:25;96012.72;;;3.68;76.16
23172;BME280;11754;42.664;23.594;2022-11-15T00:19:50;96031.84;;;3.68;76.00
23172;BME280;11754;42.664;23.594;2022-11-15T00:22:16;96028.00;;;3.61;75.99
23172;BME280;11754;42.664;23.594;2022-11-15T00:24:41;96023.56;;;3.50;75.81
23172;BME280;11754;42.664;23.594;2022-11-15T00:27:07;96021.59;;;3.41;75.40
23172;BME280;11754;42.664;23.594;2022-11-15T00:29:33;96029.63;;;3.38;75.02
23172;BME280;11754;42.664;23.594;2022-11-15T00:31:58;96025.59;;;3.34;74.68
23172;BME280;11754;42.664;23.594;2022-11-15T00:34:23;96022.25;;;3.32;74.91
23172;BME280;11754;42.664;23.594;2022-11-15T00:36:49;96017.53;;;3.37;74.70
23172;BME280;11754;42.664;23.594;2022-11-15T00:39:14;96018.28;;;3.39;74.54
23172;BME280;11754;42.664;23.594;2022-11-15T00:41:39;95993.78;;;3.29;74.23
23172;BME280;11754;42.664;23.594;2022-11-15T00:44:05;96003.25;;;3.43;73.55
23172;BME280;11754;42.664;23.594;2022-11-15T00:46:30;96000.53;;;3.44;72.80
23172;BME280;11754;42.664;23.594;2022-11-15T00:48:56;96000.09;;;3.50;72.56
23172;BME280;11754;42.664;23.594;2022-11-15T00:51:21;95986.25;;;3.37;72.31
23172;BME280;11754;42.664;23.594;2022-11-15T00:53:46;95985.50;;;3.35;71.73
23172;BME280;11754;42.664;23.594;2022-11-15T00:56:12;95997.41;;;3.39;71.90
23172;BME280;11754;42.664;23.594;2022-11-15T00:58:37;95982.22;;;3.33;71.76
23172;BME280;11754;42.664;23.594;2022-11-15T01:01:08;95991.69;;;3.34;71.40
23172;BME280;11754;42.664;23.594;2022-11-15T01:03:34;96000.78;;;3.28;72.10
23172;BME280;11754;42.664;23.594;2022-11-15T01:06:00;96001.63;;;3.29;72.42
23172;BME280;11754;42.664;23.594;2022-11-15T01:08:25;96008.50;;;3.30;72.47
23172;BME280;11754;42.664;23.594;2022-11-15T01:10:51;95980.97;;;3.26;72.19
23172;BME280;11754;42.664;23.594;2022-11-15T01:13:16;96010.84;;;3.46;71.59
23172;BME280;11754;42.664;23.594;2022-11-15T01:15:42;96004.13;;;3.54;70.67
23172;BME280;11754;42.664;23.594;2022-11-15T01:18:07;95999.84;;;3.53;70.37
23172;BME280;11754;42.664;23.594;2022-11-15T01:20:33;95998.41;;;3.49;69.85
23172;BME280;11754;42.664;23.594;2022-11-15T01:22:58;96005.69;;;3.57;70.23
23172;BME280;11754;42.664;23.594;2022-11-15T01:25:23;95997.97;;;3.55;70.65
23172;BME280;11754;42.664;23.594;2022-11-15T01:27:49;95989.66;;;3.50;70.63
23172;BME280;11754;42.664;23.594;2022-11-15T01:30:14;95993.50;;;3.57;71.27
23172;BME280;11754;42.664;23.594;2022-11-15T01:32:40;95993.72;;;3.54;71.68
23172;BME280;11754;42.664;23.594;2022-11-15T01:35:05;96002.75;;;3.61;71.68
23172;BME280;11754;42.664;23.594;2022-11-15T01:37:31;95999.19;;;3.63;71.98
23172;BME280;11754;42.664;23.594;2022-11-15T01:39:56;95993.75;;;3.66;71.88
23172;BME280;11754;42.664;23.594;2022-11-15T01:42:21;96004.81;;;3.69;72.32
23172;BME280;11754;42.664;23.594;2022-11-15T01:44:49;95979.97;;;3.64;71.75
23172;BME280;11754;42.664;23.594;2022-11-15T01:47:25;95996.63;;;3.74;72.45
23172;BME280;11754;42.664;23.594;2022-11-15T01:50:10;95992.38;;;3.73;73.09
23172;BME280;11754;42.664;23.594;2022-11-15T01:52:37;95989.03;;;3.71;73.02
23172;BME280;11754;42.664;23.594;2022-11-15T01:55:21;95992.75;;;3.79;73.05
23172;BME280;11754;42.664;23.594;2022-11-15T01:57:50;95995.75;;;3.86;73.33
23172;BME280;11754;42.664;23.594;2022-11-15T02:00:16;95987.19;;;3.84;73.76
23172;BME280;11754;42.664;23.594;2022-11-15T02:02:42;95997.19;;;3.90;74.65
23172;BME280;11754;42.664;23.594;2022-11-15T02:05:08;95978.47;;;3.96;73.60
23172;BME280;11754;42.664;23.594;2022-11-15T02:07:34;95995.59;;;4.00;74.31
23172;BME280;11754;42.664;23.594;2022-11-15T02:10:06;95981.53;;;3.90;74.48
23172;BME280;11754;42.664;23.594;2022-11-15T02:12:32;95996.25;;;3.91;75.31
23172;BME280;11754;42.664;23.594;2022-11-15T02:14:58;95995.84;;;3.84;75.89
23172;BME280;11754;42.664;23.594;2022-11-15T02:23:33;95992.63;;;3.81;77.16
23172;BME280;11754;42.664;23.594;2022-11-15T02:29:15;95979.84;;;3.89;76.66
23172;BME280;11754;42.664;23.594;2022-11-15T02:31:58;95971.97;;;3.78;76.96
23172;BME280;11754;42.664;23.594;2022-11-15T02:34:38;95984.59;;;3.84;77.63
23172;BME280;11754;42.664;23.594;2022-11-15T02:37:47;95959.03;;;3.65;78.60
23172;BME280;11754;42.664;23.594;2022-11-15T02:43:28;95989.53;;;3.76;80.74
23172;BME280;11754;42.664;23.594;2022-11-15T02:46:35;95984.94;;;3.79;81.33
23172;BME280;11754;42.664;23.594;2022-11-15T02:49:20;95971.97;;;3.78;81.42
23172;BME280;11754;42.664;23.594;2022-11-15T02:51:47;95981.03;;;3.85;80.97
23172;BME280;11754;42.664;23.594;2022-11-15T02:54:17;95981.53;;;3.90;80.84
23172;BME280;11754;42.664;23.594;2022-11-15T02:56:45;95976.94;;;3.94;80.88
23172;BME280;11754;42.664;23.594;2022-11-15T03:02:31;95990.66;;;4.20;79.45
23172;BME280;11754;42.664;23.594;2022-11-15T03:05:00;95987.81;;;4.23;79.13
23172;BME280;11754;42.664;23.594;2022-11-15T03:15:49;95973.13;;;4.33;77.76
23172;BME280;11754;42.664;23.594;2022-11-15T03:18:20;95987.41;;;4.51;76.79
23172;BME280;11754;42.664;23.594;2022-11-15T03:20:48;95992.84;;;4.48;77.13
23172;BME280;11754;42.664;23.594;2022-11-15T03:23:14;95985.22;;;4.34;78.10
23172;BME280;11754;42.664;23.594;2022-11-15T03:25:46;95980.97;;;4.44;77.60
23172;BME280;11754;42.664;23.594;2022-11-15T03:28:16;95961.00;;;4.32;77.45
23172;BME280;11754;42.664;23.594;2022-11-15T03:30:45;95974.78;;;4.34;77.82
23172;BME280;11754;42.664;23.594;2022-11-15T03:33:13;95960.75;;;4.35;78.08
23172;BME280;11754;42.664;23.594;2022-11-15T03:35:42;95968.84;;;4.43;77.43
23172;BME280;11754;42.664;23.594;2022-11-15T03:38:26;95984.78;;;4.51;77.17
23172;BME280;11754;42.664;23.594;2022-11-15T03:43:47;95973.22;;;4.43;76.72
23172;BME280;11754;42.664;23.594;2022-11-15T03:46:27;95977.19;;;4.48;75.91
23172;BME280;11754;42.664;23.594;2022-11-15T03:48:59;95970.31;;;4.47;75.85
23172;BME280;11754;42.664;23.594;2022-11-15T03:51:28;95964.59;;;4.53;75.87
23172;BME280;11754;42.664;23.594;2022-11-15T03:53:54;95968.16;;;4.52;75.60
23172;BME280;11754;42.664;23.594;2022-11-15T03:56:19;95961.03;;;4.54;75.62
23172;BME280;11754;42.664;23.594;2022-11-15T03:58:45;95960.53;;;4.49;75.77
23172;BME280;11754;42.664;23.594;2022-11-15T04:01:10;95952.13;;;4.46;76.56
23172;BME280;11754;42.664;23.594;2022-11-15T04:03:35;95957.47;;;4.44;76.73
23172;BME280;11754;42.664;23.594;2022-11-15T04:06:01;95958.88;;;4.48;76.70
23172;BME280;11754;42.664;23.594;2022-11-15T04:08:26;95941.31;;;4.50;76.81
23172;BME280;11754;42.664;23.594;2022-11-15T04:10:51;95953.22;;;4.66;76.12
23172;BME280;11754;42.664;23.594;2022-11-15T04:13:17;95937.53;;;4.66;76.17
23172;BME280;11754;42.664;23.594;2022-11-15T04:15:42;95931.81;;;4.72;76.00
23172;BME280;11754;42.664;23.594;2022-11-15T04:18:07;95932.75;;;4.82;75.32
23172;BME280;11754;42.664;23.594;2022-11-15T04:20:33;95927.06;;;4.88;75.11
23172;BME280;11754;42.664;23.594;2022-11-15T04:23:22;95950.34;;;5.02;74.38
23172;BME280;11754;42.664;23.594;2022-11-15T04:26:07;95927.50;;;5.04;73.94
23172;BME280;11754;42.664;23.594;2022-11-15T04:28:34;95929.66;;;4.99;74.03
23172;BME280;11754;42.664;23.594;2022-11-15T04:31:00;95929.78;;;4.87;74.32
23172;BME280;11754;42.664;23.594;2022-11-15T04:33:25;95925.88;;;4.81;73.79
23172;BME280;11754;42.664;23.594;2022-11-15T04:35:51;95922.53;;;4.79;74.10
23172;BME280;11754;42.664;23.594;2022-11-15T04:38:36;95917.31;;;4.79;73.66
23172;BME280;11754;42.664;23.594;2022-11-15T04:41:01;95916.13;;;4.83;73.60
23172;BME280;11754;42.664;23.594;2022-11-15T04:43:27;95914.00;;;4.77;73.88
23172;BME280;11754;42.664;23.594;2022-11-15T04:45:53;95937.53;;;4.88;73.52
23172;BME280;11754;42.664;23.594;2022-11-15T04:48:18;95924.22;;;4.91;73.53
23172;BME280;11754;42.664;23.594;2022-11-15T04:50:43;95919.91;;;4.90;73.26
23172;BME280;11754;42.664;23.594;2022-11-15T04:53:09;95913.63;;;4.93;72.74
23172;BME280;11754;42.664;23.594;2022-11-15T04:55:34;95912.44;;;4.86;72.96
23172;BME280;11754;42.664;23.594;2022-11-15T04:58:01;95917.56;;;4.87;72.84
23172;BME280;11754;42.664;23.594;2022-11-15T05:00:28;95917.78;;;4.95;72.88
23172;BME280;11754;42.664;23.594;2022-11-15T05:02:54;95923.59;;;4.99;73.28
23172;BME280;11754;42.664;23.594;2022-11-15T05:05:37;95926.56;;;5.05;73.07
23172;BME280;11754;42.664;23.594;2022-11-15T05:08:03;95918.22;;;5.12;73.29
23172;BME280;11754;42.664;23.594;2022-11-15T05:10:28;95911.25;;;5.12;73.33
23172;BME280;11754;42.664;23.594;2022-11-15T05:12:54;95912.88;;;5.13;73.35
23172;BME280;11754;42.664;23.594;2022-11-15T05:15:19;95929.63;;;5.22;73.02
23172;BME280;11754;42.664;23.594;2022-11-15T05:17:44;95931.78;;;5.17;73.06
23172;BME280;11754;42.664;23.594;2022-11-15T05:20:10;95930.38;;;5.13;73.60
23172;BME280;11754;42.664;23.594;2022-11-15T05:22:36;95938.69;;;5.06;73.57
23172;BME280;11754;42.664;23.594;2022-11-15T05:25:01;95937.63;;;4.98;74.25
23172;BME280;11754;42.664;23.594;2022-11-15T05:27:27;95936.53;;;5.00;74.15
23172;BME280;11754;42.664;23.594;2022-11-15T05:29:52;95934.16;;;4.97;74.39
23172;BME280;11754;42.664;23.594;2022-11-15T05:32:17;95941.56;;;4.81;74.76
23172;BME280;11754;42.664;23.594;2022-11-15T05:34:43;95923.75;;;4.52;75.08
23172;BME280;11754;42.664;23.594;2022-11-15T05:37:09;95930.75;;;4.52;76.39
23172;BME280;11754;42.664;23.594;2022-11-15T05:39:35;95935.97;;;4.52;76.45
23172;BME280;11754;42.664;23.594;2022-11-15T05:42:12;95934.78;;;4.45;77.00
23172;BME280;11754;42.664;23.594;2022-11-15T05:44:41;95943.44;;;4.34;78.30
23172;BME280;11754;42.664;23.594;2022-11-15T05:47:12;95945.22;;;4.22;78.81
23172;BME280;11754;42.664;23.594;2022-11-15T05:49:39;95944.94;;;4.14;79.26
23172;BME280;11754;42.664;23.594;2022-11-15T05:52:10;95947.53;;;4.14;80.15
23172;BME280;11754;42.664;23.594;2022-11-15T05:54:38;95946.50;;;4.28;80.33
23172;BME280;11754;42.664;23.594;2022-11-15T05:57:04;95949.63;;;4.44;80.87
23172;BME280;11754;42.664;23.594;2022-11-15T05:59:31;95946.66;;;4.49;80.78
23172;BME280;11754;42.664;23.594;2022-11-15T06:01:57;95926.00;;;4.46;81.03
23172;BME280;11754;42.664;23.594;2022-11-15T06:04:23;95940.16;;;4.54;81.12
23172;BME280;11754;42.664;23.594;2022-11-15T06:06:48;95944.66;;;4.64;80.90
23172;BME280;11754;42.664;23.594;2022-11-15T06:09:14;95947.25;;;4.75;81.09
23172;BME280;11754;42.664;23.594;2022-11-15T06:11:39;95952.00;;;4.81;81.01
23172;BME280;11754;42.664;23.594;2022-11-15T06:14:04;95950.81;;;4.96;80.98
23172;BME280;11754;42.664;23.594;2022-11-15T06:16:30;95940.13;;;4.99;80.28
23172;BME280;11754;42.664;23.594;2022-11-15T06:18:55;95951.72;;;5.29;80.00
23172;BME280;11754;42.664;23.594;2022-11-15T06:21:21;95939.63;;;5.17;79.69
23172;BME280;11754;42.664;23.594;2022-11-15T06:23:46;95952.69;;;5.28;79.92
23172;BME280;11754;42.664;23.594;2022-11-15T06:26:11;95954.31;;;5.40;79.53
23172;BME280;11754;42.664;23.594;2022-11-15T06:28:37;95949.75;;;5.53;79.60
23172;BME280;11754;42.664;23.594;2022-11-15T06:31:04;95943.63;;;5.75;79.30
23172;BME280;11754;42.664;23.594;2022-11-15T06:33:29;95938.19;;;5.99;78.54
23172;BME280;11754;42.664;23.594;2022-11-15T06:35:55;95949.50;;;6.21;77.56
23172;BME280;11754;42.664;23.594;2022-11-15T06:38:20;95938.81;;;6.34;76.88
23172;BME280;11754;42.664;23.594;2022-11-15T06:40:46;95927.91;;;6.49;76.12
23172;BME280;11754;42.664;23.594;2022-11-15T06:43:11;95938.22;;;6.72;75.81
23172;BME280;11754;42.664;23.594;2022-11-15T06:45:37;95948.59;;;6.83;75.06
23172;BME280;11754;42.664;23.594;2022-11-15T06:48:02;95941.34;;;6.96;74.34
23172;BME280;11754;42.664;23.594;2022-11-15T06:50:28;95936.69;;;7.10;73.08
23172;BME280;11754;42.664;23.594;2022-11-15T06:52:53;95944.06;;;7.26;72.28
23172;BME280;11754;42.664;23.594;2022-11-15T06:55:19;95940.50;;;7.36;72.01
23172;BME280;11754;42.664;23.594;2022-11-15T06:57:52;95936.38;;;7.43;71.28
23172;BME280;11754;42.664;23.594;2022-11-15T07:00:19;95920.19;;;7.48;70.92
23172;BME280;11754;42.664;23.594;2022-11-15T07:02:45;95934.84;;;7.60;70.83
23172;BME280;11754;42.664;23.594;2022-11-15T07:05:11;95936.53;;;7.71;70.39
23172;BME280;11754;42.664;23.594;2022-11-15T07:07:37;95935.00;;;7.78;70.27
23172;BME280;11754;42.664;23.594;2022-11-15T07:10:02;95937.78;;;7.86;69.78
23172;BME280;11754;42.664;23.594;2022-11-15T07:12:28;95932.66;;;7.94;69.48
23172;BME280;11754;42.664;23.594;2022-11-15T07:14:53;95933.22;;;8.08;69.50
23172;BME280;11754;42.664;23.594;2022-11-15T07:17:19;95926.28;;;8.07;69.02
23172;BME280;11754;42.664;23.594;2022-11-15T07:19:44;95938.03;;;8.22;68.55
23172;BME280;11754;42.664;23.594;2022-11-15T07:22:09;95926.84;;;8.30;67.76
23172;BME280;11754;42.664;23.594;2022-11-15T07:24:35;95933.19;;;8.47;67.29
23172;BME280;11754;42.664;23.594;2022-11-15T07:27:00;95928.06;;;8.55;67.40
23172;BME280;11754;42.664;23.594;2022-11-15T07:29:25;95921.25;;;8.62;66.99
23172;BME280;11754;42.664;23.594;2022-11-15T07:31:51;95917.66;;;8.63;66.56
23172;BME280;11754;42.664;23.594;2022-11-15T07:34:16;95933.34;;;8.82;66.94
23172;BME280;11754;42.664;23.594;2022-11-15T07:36:41;95917.38;;;8.94;66.14
23172;BME280;11754;42.664;23.594;2022-11-15T07:39:07;95919.03;;;9.22;64.93
23172;BME280;11754;42.664;23.594;2022-11-15T07:41:32;95914.41;;;9.52;64.18
23172;BME280;11754;42.664;23.594;2022-11-15T07:43:57;95917.47;;;9.57;62.57
23172;BME280;11754;42.664;23.594;2022-11-15T07:46:23;95906.75;;;9.41;61.95
23172;BME280;11754;42.664;23.594;2022-11-15T07:48:48;95917.19;;;9.32;62.69
23172;BME280;11754;42.664;23.594;2022-11-15T07:51:14;95917.56;;;9.20;62.94
23172;BME280;11754;42.664;23.594;2022-11-15T07:53:41;95922.66;;;9.21;62.83
23172;BME280;11754;42.664;23.594;2022-11-15T07:56:07;95912.34;;;9.10;63.57
23172;BME280;11754;42.664;23.594;2022-11-15T07:58:33;95902.66;;;9.01;63.31
23172;BME280;11754;42.664;23.594;2022-11-15T08:01:02;95905.31;;;9.28;62.42
23172;BME280;11754;42.664;23.594;2022-11-15T08:03:28;95914.25;;;9.35;63.07
23172;BME280;11754;42.664;23.594;2022-11-15T08:05:54;95914.66;;;9.58;62.23
23172;BME280;11754;42.664;23.594;2022-11-15T08:08:19;95921.66;;;9.50;62.31
23172;BME280;11754;42.664;23.594;2022-11-15T08:10:44;95905.88;;;9.50;62.23
23172;BME280;11754;42.664;23.594;2022-11-15T08:13:11;95889.31;;;9.75;62.07
23172;BME280;11754;42.664;23.594;2022-11-15T08:15:37;95903.91;;;9.87;62.29
23172;BME280;11754;42.664;23.594;2022-11-15T08:18:05;95889.91;;;9.69;61.73
23172;BME280;11754;42.664;23.594;2022-11-15T08:20:31;95898.44;;;9.81;62.26
23172;BME280;11754;42.664;23.594;2022-11-15T08:22:58;95900.44;;;9.69;62.26
23172;BME280;11754;42.664;23.594;2022-11-15T08:25:24;95909.88;;;9.72;62.96
23172;BME280;11754;42.664;23.594;2022-11-15T08:27:54;95904.81;;;9.78;62.31
23172;BME280;11754;42.664;23.594;2022-11-15T08:30:20;95886.22;;;9.80;62.64
23172;BME280;11754;42.664;23.594;2022-11-15T08:32:47;95903.00;;;9.97;62.47
23172;BME280;11754;42.664;23.594;2022-11-15T08:35:12;95896.53;;;9.73;61.96
23172;BME280;11754;42.664;23.594;2022-11-15T08:37:38;95901.97;;;9.90;61.93
23172;BME280;11754;42.664;23.594;2022-11-15T08:40:04;95882.53;;;9.91;62.09
23172;BME280;11754;42.664;23.594;2022-11-15T08:42:29;95902.03;;;9.98;61.73
23172;BME280;11754;42.664;23.594;2022-11-15T08:44:55;95900.50;;;10.13;61.73
23172;BME280;11754;42.664;23.594;2022-11-15T08:47:20;95905.69;;;10.05;61.17
23172;BME280;11754;42.664;23.594;2022-11-15T08:49:46;95892.06;;;10.09;61.22
23172;BME280;11754;42.664;23.594;2022-11-15T08:52:11;95894.25;;;10.14;60.76
23172;BME280;11754;42.664;23.594;2022-11-15T08:54:36;95872.94;;;10.07;60.60
23172;BME280;11754;42.664;23.594;2022-11-15T08:57:02;95891.09;;;10.28;60.17
23172;BME280;11754;42.664;23.594;2022-11-15T08:59:27;95876.69;;;10.23;60.43
23172;BME280;11754;42.664;23.594;2022-11-15T09:01:53;95871.03;;;10.36;60.06
23172;BME280;11754;42.664;23.594;2022-11-15T09:04:18;95868.63;;;10.24;60.09
23172;BME280;11754;42.664;23.594;2022-11-15T09:06:43;95861.41;;;10.26;59.66
23172;BME280;11754;42.664;23.594;2022-11-15T09:09:09;95881.97;;;10.05;60.81
23172;BME280;11754;42.664;23.594;2022-11-15T09:11:34;95868.16;;;10.03;61.21
23172;BME280;11754;42.664;23.594;2022-11-15T09:14:00;95869.19;;;10.10;61.21
23172;BME280;11754;42.664;23.594;2022-11-15T09:16:25;95858.41;;;10.21;60.78
23172;BME280;11754;42.664;23.594;2022-11-15T09:18:50;95849.22;;;10.25;60.76
23172;BME280;11754;42.664;23.594;2022-11-15T09:21:16;95849.94;;;10.36;60.58
23172;BME280;11754;42.664;23.594;2022-11-15T09:23:41;95841.16;;;10.27;60.49
23172;BME280;11754;42.664;23.594;2022-11-15T09:26:06;95846.03;;;10.40;59.94
23172;BME280;11754;42.664;23.594;2022-11-15T09:28:33;95855.31;;;10.52;59.99
23172;BME280;11754;42.664;23.594;2022-11-15T09:31:00;95840.44;;;10.43;60.21
23172;BME280;11754;42.664;23.594;2022-11-15T09:33:26;95854.28;;;10.45;59.87
23172;BME280;11754;42.664;23.594;2022-11-15T09:35:52;95840.63;;;10.49;59.32
23172;BME280;11754;42.664;23.594;2022-11-15T09:38:18;95835.16;;;10.43;59.52
23172;BME280;11754;42.664;23.594;2022-11-15T09:40:43;95836.19;;;10.50;60.09
23172;BME280;11754;42.664;23.594;2022-11-15T09:46:15;95833.09;;;10.28;60.96
23172;BME280;11754;42.664;23.594;2022-11-15T09:51:30;95814.38;;;10.40;60.63
23172;BME280;11754;42.664;23.594;2022-11-15T09:53:57;95822.13;;;10.41;60.35
23172;BME280;11754;42.664;23.594;2022-11-15T09:56:27;95814.16;;;10.07;61.43
23172;BME280;11754;42.664;23.594;2022-11-15T10:04:26;95797.81;;;11.06;59.30
23172;BME280;11754;42.664;23.594;2022-11-15T10:07:10;95786.97;;;11.34;59.01
23172;BME280;11754;42.664;23.594;2022-11-15T10:09:46;95789.66;;;11.58;57.56
23172;BME280;11754;42.664;23.594;2022-11-15T10:12:13;95784.50;;;11.65;57.50
23172;BME280;11754;42.664;23.594;2022-11-15T10:14:39;95775.59;;;11.82;56.84
23172;BME280;11754;42.664;23.594;2022-11-15T10:20:33;95777.25;;;12.16;56.48
23172;BME280;11754;42.664;23.594;2022-11-15T10:22:51;95758.06;;;12.14;55.99
23172;BME280;11754;42.664;23.594;2022-11-15T10:25:27;95756.06;;;12.24;55.83
23172;BME280;11754;42.664;23.594;2022-11-15T10:27:58;95746.41;;;12.39;55.51
23172;BME280;11754;42.664;23.594;2022-11-15T10:30:52;95748.44;;;12.68;54.74
23172;BME280;11754;42.664;23.594;2022-11-15T10:33:26;95751.31;;;12.90;54.28
23172;BME280;11754;42.664;23.594;2022-11-15T10:41:20;95745.19;;;13.20;54.17
23172;BME280;11754;42.664;23.594;2022-11-15T10:46:33;95731.91;;;13.29;53.47
23172;BME280;11754;42.664;23.594;2022-11-15T10:51:57;95722.91;;;13.38;53.72
23172;BME280;11754;42.664;23.594;2022-11-15T10:54:39;95710.06;;;13.50;53.04
23172;BME280;11754;42.664;23.594;2022-11-15T10:57:20;95713.78;;;13.63;52.70
23172;BME280;11754;42.664;23.594;2022-11-15T10:59:53;95702.44;;;13.69;52.54
23172;BME280;11754;42.664;23.594;2022-11-15T11:02:31;95686.84;;;13.89;52.46
23172;BME280;11754;42.664;23.594;2022-11-15T11:04:58;95692.50;;;14.16;51.65
23172;BME280;11754;42.664;23.594;2022-11-15T11:07:32;95684.00;;;14.21;51.38
23172;BME280;11754;42.664;23.594;2022-11-15T11:10:00;95690.31;;;14.19;50.38
23172;BME280;11754;42.664;23.594;2022-11-15T11:12:31;95686.72;;;14.42;50.07
23172;BME280;11754;42.664;23.594;2022-11-15T11:14:59;95681.69;;;14.77;49.62
23172;BME280;11754;42.664;23.594;2022-11-15T11:23:13;95657.81;;;16.32;45.19
23172;BME280;11754;42.664;23.594;2022-11-15T11:25:56;95649.69;;;16.47;44.11
23172;BME280;11754;42.664;23.594;2022-11-15T11:36:58;95607.06;;;22.89;33.54
23172;BME280;11754;42.664;23.594;2022-11-15T11:45:18;95581.31;;;31.69;21.47
23172;BME280;11754;42.664;23.594;2022-11-15T11:47:51;95580.47;;;33.76;18.68
23172;BME280;11754;42.664;23.594;2022-11-15T11:50:24;95575.06;;;32.48;19.92
23172;BME280;11754;42.664;23.594;2022-11-15T11:52:58;95560.69;;;34.24;18.80
23172;BME280;11754;42.664;23.594;2022-11-15T11:55:32;95561.06;;;37.87;15.68
23172;BME280;11754;42.664;23.594;2022-11-15T12:01:17;95532.34;;;42.28;12.51
23172;BME280;11754;42.664;23.594;2022-11-15T12:06:45;95521.56;;;43.22;11.59
23172;BME280;11754;42.664;23.594;2022-11-15T12:09:15;95524.28;;;44.16;10.82
23172;BME280;11754;42.664;23.594;2022-11-15T12:14:38;95509.41;;;44.38;10.28
23172;BME280;11754;42.664;23.594;2022-11-15T12:17:05;95507.97;;;43.77;10.83
23172;BME280;11754;42.664;23.594;2022-11-15T12:19:34;95497.34;;;43.52;10.70
23172;BME280;11754;42.664;23.594;2022-11-15T12:24:48;95487.69;;;42.82;10.77
23172;BME280;11754;42.664;23.594;2022-11-15T12:30:07;95478.78;;;42.46;11.36
23172;BME280;11754;42.664;23.594;2022-11-15T12:32:36;95489.78;;;42.66;11.31
23172;BME280;11754;42.664;23.594;2022-11-15T12:35:06;95479.97;;;41.22;11.87
23172;BME280;11754;42.664;23.594;2022-11-15T12:37:48;95478.53;;;40.93;12.12
23172;BME280;11754;42.664;23.594;2022-11-15T12:45:42;95463.31;;;41.57;11.52
23172;BME280;11754;42.664;23.594;2022-11-15T13:11:53;95437.16;;;44.42;9.92
23172;BME280;11754;42.664;23.594;2022-11-15T13:17:35;95434.47;;;43.33;10.47
23172;BME280;11754;42.664;23.594;2022-11-15T13:28:22;95410.59;;;40.56;12.15
23172;BME280;11754;42.664;23.594;2022-11-15T13:30:54;95408.00;;;40.48;12.30
23172;BME280;11754;42.664;23.594;2022-11-15T13:33:27;95408.97;;;40.91;12.05
23172;BME280;11754;42.664;23.594;2022-11-15T13:35:57;95405.03;;;40.92;11.73
23172;BME280;11754;42.664;23.594;2022-11-15T13:38:34;95389.47;;;40.48;12.15
23172;BME280;11754;42.664;23.594;2022-11-15T13:41:11;95406.00;;;40.13;12.37
23172;BME280;11754;42.664;23.594;2022-11-15T13:43:39;95401.72;;;39.12;12.78
23172;BME280;11754;42.664;23.594;2022-11-15T13:48:30;95403.31;;;37.74;14.15
23172;BME280;11754;42.664;23.594;2022-11-15T13:50:56;95393.69;;;37.35;13.97
23172;BME280;11754;42.664;23.594;2022-11-15T13:53:22;95397.59;;;36.80;14.73
23172;BME280;11754;42.664;23.594;2022-11-15T13:55:49;95402.47;;;35.30;15.93
23172;BME280;11754;42.664;23.594;2022-11-15T13:58:15;95390.56;;;34.56;16.40
23172;BME280;11754;42.664;23.594;2022-11-15T14:00:42;95394.00;;;34.13;16.66
23172;BME280;11754;42.664;23.594;2022-11-15T14:06:11;95404.94;;;31.23;19.00
23172;BME280;11754;42.664;23.594;2022-11-15T14:08:39;95405.50;;;29.01;21.40
23172;BME280;11754;42.664;23.594;2022-11-15T14:11:13;95410.59;;;26.87;23.53
23172;BME280;11754;42.664;23.594;2022-11-15T14:13:40;95410.91;;;25.39;25.40
23172;BME280;11754;42.664;23.594;2022-11-15T14:16:14;95408.41;;;24.09;27.48
23172;BME280;11754;42.664;23.594;2022-11-15T14:18:57;95412.72;;;22.77;29.31
23172;BME280;11754;42.664;23.594;2022-11-15T14:21:23;95405.72;;;22.02;30.32
23172;BME280;11754;42.664;23.594;2022-11-15T14:23:48;95415.75;;;21.19;31.68
23172;BME280;11754;42.664;23.594;2022-11-15T14:26:30;95401.31;;;20.85;32.62
23172;BME280;11754;42.664;23.594;2022-11-15T14:28:56;95406.78;;;20.90;32.49
23172;BME280;11754;42.664;23.594;2022-11-15T14:31:22;95400.97;;;20.81;32.70
23172;BME280;11754;42.664;23.594;2022-11-15T14:33:47;95414.31;;;20.16;34.09
23172;BME280;11754;42.664;23.594;2022-11-15T14:36:19;95401.66;;;19.56;34.94
23172;BME280;11754;42.664;23.594;2022-11-15T14:38:45;95418.03;;;19.05;35.75
23172;BME280;11754;42.664;23.594;2022-11-15T14:43:43;95414.31;;;17.92;38.04
23172;BME280;11754;42.664;23.594;2022-11-15T14:46:08;95422.28;;;17.34;39.35
23172;BME280;11754;42.664;23.594;2022-11-15T14:48:34;95403.56;;;16.76;40.49
23172;BME280;11754;42.664;23.594;2022-11-15T14:50:59;95420.91;;;16.25;41.79
23172;BME280;11754;42.664;23.594;2022-11-15T14:53:25;95425.50;;;15.77;43.43
23172;BME280;11754;42.664;23.594;2022-11-15T14:55:50;95420.63;;;15.39;44.31
23172;BME280;11754;42.664;23.594;2022-11-15T14:58:16;95429.19;;;15.00;45.24
23172;BME280;11754;42.664;23.594;2022-11-15T15:00:41;95415.44;;;14.61;46.38
23172;BME280;11754;42.664;23.594;2022-11-15T15:03:07;95430.72;;;14.38;47.14
23172;BME280;11754;42.664;23.594;2022-11-15T15:05:38;95449.41;;;13.87;48.71
23172;BME280;11754;42.664;23.594;2022-11-15T15:08:05;95453.22;;;13.48;49.80
23172;BME280;11754;42.664;23.594;2022-11-15T15:10:33;95437.69;;;13.30;50.35
23172;BME280;11754;42.664;23.594;2022-11-15T15:12:59;95431.41;;;13.16;50.93
23172;BME280;11754;42.664;23.594;2022-11-15T15:15:34;95429.00;;;12.92;51.84
23172;BME280;11754;42.664;23.594;2022-11-15T15:18:01;95427.88;;;12.71;52.34